Portada
METAR-TAF:

METAR-TAF

Aeroports :

Aeroport Internacional de Sfax

Sfax, Tunísia

latitud: 34-43N, longitud: 010-41E, altitud: 21 m

Observació

L'informe es va fer fa 31 minuts, a les 18:00 UTC
Vent 9 kt del Est/Sud-Est
Temperatura
Pressió

METAR: DTTX 251800Z 12009KT CAVN?4VF-[?4TL?13

Hora: 19:31 (18:31 UTC)

Pronòstic

L'informe es va fer fa 1 hora i 31 minuts, a les 17:00 UTC
Pronòstic vàlid del 25 a les 18 UTC al 26 a les 18 UTC
Vent 12 kt del Sud
Visibilitat 10 km o més
sense núvols per sota de 1500 mi sense presència de cumulonimbus.
Probabilitat 30% :
Temporalment
l' 26 a les 02 UTC al 26 a les 06 UTC
Visibilitat: 3000 m
boirina

TAF: DTTX 251700Z 2518/2618 19012KT CAVOK PROB30 TEMPO 2602/2606 3000 BR

Observacions i pronòstics meteorològics de més de 4000 aeroports (METAR i TAF).

Les estacions disponibles són els punts grocs i vermells al mapa.

Posi el ratolí al punt desitjat per veure el nom de l'estació.

Feu clic per veure les observacions i els pronòstics meteorològics.

Per canviar el mapa: feu clic els botons verds amb una creu de color negre per apropar; al botó verd amb un guió per allunyar la imatge; o en les fletxes verdes per a mapes adjacents.


METAR-TAF: